sensor_id;sensor_type;location;lat;lon;timestamp;P1;durP1;ratioP1;P2;durP2;ratioP2
23472;SDS011;11909;52.516;13.564;2023-04-15T00:02:23;32.88;;;22.52;;
23472;SDS011;11909;52.516;13.564;2023-04-15T00:04:51;34.78;;;23.73;;
23472;SDS011;11909;52.516;13.564;2023-04-15T00:07:19;32.03;;;23.38;;
23472;SDS011;11909;52.516;13.564;2023-04-15T00:09:47;31.25;;;22.63;;
23472;SDS011;11909;52.516;13.564;2023-04-15T00:12:14;34.28;;;24.60;;
23472;SDS011;11909;52.516;13.564;2023-04-15T00:14:42;36.92;;;23.27;;
23472;SDS011;11909;52.516;13.564;2023-04-15T00:17:11;33.53;;;24.35;;
23472;SDS011;11909;52.516;13.564;2023-04-15T00:19:39;33.78;;;24.55;;
23472;SDS011;11909;52.516;13.564;2023-04-15T00:22:07;34.55;;;24.17;;
23472;SDS011;11909;52.516;13.564;2023-04-15T00:24:35;36.13;;;24.92;;
23472;SDS011;11909;52.516;13.564;2023-04-15T00:27:03;35.72;;;26.15;;
23472;SDS011;11909;52.516;13.564;2023-04-15T00:29:31;35.95;;;25.08;;
23472;SDS011;11909;52.516;13.564;2023-04-15T00:31:58;33.88;;;24.70;;
23472;SDS011;11909;52.516;13.564;2023-04-15T00:34:27;36.80;;;25.85;;
23472;SDS011;11909;52.516;13.564;2023-04-15T00:36:55;39.03;;;26.13;;
23472;SDS011;11909;52.516;13.564;2023-04-15T00:39:23;35.30;;;25.58;;
23472;SDS011;11909;52.516;13.564;2023-04-15T00:41:51;35.95;;;25.27;;
23472;SDS011;11909;52.516;13.564;2023-04-15T00:44:19;35.30;;;25.17;;
23472;SDS011;11909;52.516;13.564;2023-04-15T00:46:47;37.03;;;26.05;;
23472;SDS011;11909;52.516;13.564;2023-04-15T00:49:17;37.80;;;26.02;;
23472;SDS011;11909;52.516;13.564;2023-04-15T00:51:46;39.67;;;27.23;;
23472;SDS011;11909;52.516;13.564;2023-04-15T00:54:14;39.88;;;27.15;;
23472;SDS011;11909;52.516;13.564;2023-04-15T00:56:42;36.00;;;25.02;;
23472;SDS011;11909;52.516;13.564;2023-04-15T00:59:10;40.47;;;27.45;;
23472;SDS011;11909;52.516;13.564;2023-04-15T01:01:38;39.13;;;26.85;;
23472;SDS011;11909;52.516;13.564;2023-04-15T01:04:06;40.28;;;27.42;;
23472;SDS011;11909;52.516;13.564;2023-04-15T01:06:35;36.20;;;25.60;;
23472;SDS011;11909;52.516;13.564;2023-04-15T01:09:04;42.70;;;27.00;;
23472;SDS011;11909;52.516;13.564;2023-04-15T01:11:32;39.85;;;27.25;;
23472;SDS011;11909;52.516;13.564;2023-04-15T01:14:01;44.60;;;27.48;;
23472;SDS011;11909;52.516;13.564;2023-04-15T01:16:29;41.92;;;27.35;;
23472;SDS011;11909;52.516;13.564;2023-04-15T01:18:57;42.60;;;27.73;;
23472;SDS011;11909;52.516;13.564;2023-04-15T01:21:25;45.88;;;28.02;;
23472;SDS011;11909;52.516;13.564;2023-04-15T01:23:53;45.17;;;28.20;;
23472;SDS011;11909;52.516;13.564;2023-04-15T01:26:24;43.13;;;27.45;;
23472;SDS011;11909;52.516;13.564;2023-04-15T01:28:52;46.47;;;28.48;;
23472;SDS011;11909;52.516;13.564;2023-04-15T01:31:21;41.80;;;27.63;;
23472;SDS011;11909;52.516;13.564;2023-04-15T01:33:49;43.05;;;28.55;;
23472;SDS011;11909;52.516;13.564;2023-04-15T01:36:17;44.22;;;29.23;;
23472;SDS011;11909;52.516;13.564;2023-04-15T01:38:44;44.08;;;28.25;;
23472;SDS011;11909;52.516;13.564;2023-04-15T01:41:12;48.05;;;29.58;;
23472;SDS011;11909;52.516;13.564;2023-04-15T01:43:42;46.33;;;29.38;;
23472;SDS011;11909;52.516;13.564;2023-04-15T01:46:09;45.28;;;27.27;;
23472;SDS011;11909;52.516;13.564;2023-04-15T01:48:37;43.63;;;28.50;;
23472;SDS011;11909;52.516;13.564;2023-04-15T01:51:05;46.65;;;27.73;;
23472;SDS011;11909;52.516;13.564;2023-04-15T01:53:33;45.88;;;28.33;;
23472;SDS011;11909;52.516;13.564;2023-04-15T01:56:01;44.28;;;27.58;;
23472;SDS011;11909;52.516;13.564;2023-04-15T01:58:28;43.90;;;28.23;;
23472;SDS011;11909;52.516;13.564;2023-04-15T02:00:58;42.97;;;28.90;;
23472;SDS011;11909;52.516;13.564;2023-04-15T02:03:25;40.40;;;25.73;;
23472;SDS011;11909;52.516;13.564;2023-04-15T02:05:54;40.40;;;27.45;;
23472;SDS011;11909;52.516;13.564;2023-04-15T02:08:22;42.15;;;27.73;;
23472;SDS011;11909;52.516;13.564;2023-04-15T02:10:50;42.75;;;27.92;;
23472;SDS011;11909;52.516;13.564;2023-04-15T02:13:18;39.22;;;26.63;;
23472;SDS011;11909;52.516;13.564;2023-04-15T02:15:46;46.35;;;27.88;;
23472;SDS011;11909;52.516;13.564;2023-04-15T02:18:16;42.97;;;27.10;;
23472;SDS011;11909;52.516;13.564;2023-04-15T02:20:43;37.33;;;24.85;;
23472;SDS011;11909;52.516;13.564;2023-04-15T02:23:12;39.78;;;25.42;;
23472;SDS011;11909;52.516;13.564;2023-04-15T02:25:40;43.28;;;27.35;;
23472;SDS011;11909;52.516;13.564;2023-04-15T02:28:18;43.58;;;27.27;;
23472;SDS011;11909;52.516;13.564;2023-04-15T02:30:46;41.53;;;26.17;;
23472;SDS011;11909;52.516;13.564;2023-04-15T02:33:17;40.67;;;26.27;;
23472;SDS011;11909;52.516;13.564;2023-04-15T02:35:45;36.20;;;24.58;;
23472;SDS011;11909;52.516;13.564;2023-04-15T02:38:13;43.00;;;27.10;;
23472;SDS011;11909;52.516;13.564;2023-04-15T02:40:43;44.05;;;27.02;;
23472;SDS011;11909;52.516;13.564;2023-04-15T02:43:11;40.03;;;26.13;;
23472;SDS011;11909;52.516;13.564;2023-04-15T02:45:38;39.42;;;26.00;;
23472;SDS011;11909;52.516;13.564;2023-04-15T02:48:08;41.80;;;26.70;;
23472;SDS011;11909;52.516;13.564;2023-04-15T02:50:38;40.20;;;26.63;;
23472;SDS011;11909;52.516;13.564;2023-04-15T02:53:05;38.78;;;24.60;;
23472;SDS011;11909;52.516;13.564;2023-04-15T02:55:33;38.92;;;24.23;;
23472;SDS011;11909;52.516;13.564;2023-04-15T02:58:01;37.95;;;23.58;;
23472;SDS011;11909;52.516;13.564;2023-04-15T03:00:29;40.85;;;25.40;;
23472;SDS011;11909;52.516;13.564;2023-04-15T03:02:57;42.40;;;27.17;;
23472;SDS011;11909;52.516;13.564;2023-04-15T03:05:27;40.63;;;25.50;;
23472;SDS011;11909;52.516;13.564;2023-04-15T03:07:57;36.35;;;24.40;;
23472;SDS011;11909;52.516;13.564;2023-04-15T03:10:26;39.28;;;25.13;;
23472;SDS011;11909;52.516;13.564;2023-04-15T03:12:53;40.38;;;24.40;;
23472;SDS011;11909;52.516;13.564;2023-04-15T03:15:21;42.22;;;24.30;;
23472;SDS011;11909;52.516;13.564;2023-04-15T03:17:49;39.15;;;25.02;;
23472;SDS011;11909;52.516;13.564;2023-04-15T03:20:17;40.80;;;24.73;;
23472;SDS011;11909;52.516;13.564;2023-04-15T03:22:45;40.28;;;25.90;;
23472;SDS011;11909;52.516;13.564;2023-04-15T03:25:14;37.95;;;23.02;;
23472;SDS011;11909;52.516;13.564;2023-04-15T03:27:42;39.92;;;24.95;;
23472;SDS011;11909;52.516;13.564;2023-04-15T03:30:10;40.00;;;24.73;;
23472;SDS011;11909;52.516;13.564;2023-04-15T03:32:38;40.90;;;27.20;;
23472;SDS011;11909;52.516;13.564;2023-04-15T03:35:06;35.42;;;22.73;;
23472;SDS011;11909;52.516;13.564;2023-04-15T03:37:34;33.47;;;22.90;;
23472;SDS011;11909;52.516;13.564;2023-04-15T03:40:02;35.22;;;23.17;;
23472;SDS011;11909;52.516;13.564;2023-04-15T03:42:32;36.17;;;23.73;;
23472;SDS011;11909;52.516;13.564;2023-04-15T03:44:59;37.13;;;25.05;;
23472;SDS011;11909;52.516;13.564;2023-04-15T03:47:27;39.58;;;24.30;;
23472;SDS011;11909;52.516;13.564;2023-04-15T03:49:55;36.45;;;22.77;;
23472;SDS011;11909;52.516;13.564;2023-04-15T03:52:22;35.40;;;24.55;;
23472;SDS011;11909;52.516;13.564;2023-04-15T03:54:50;37.00;;;24.42;;
23472;SDS011;11909;52.516;13.564;2023-04-15T03:57:18;34.75;;;22.33;;
23472;SDS011;11909;52.516;13.564;2023-04-15T03:59:47;34.50;;;22.42;;
23472;SDS011;11909;52.516;13.564;2023-04-15T04:02:15;32.60;;;22.58;;
23472;SDS011;11909;52.516;13.564;2023-04-15T04:04:43;32.17;;;21.10;;
23472;SDS011;11909;52.516;13.564;2023-04-15T04:07:13;33.17;;;22.13;;
23472;SDS011;11909;52.516;13.564;2023-04-15T04:09:42;32.53;;;21.67;;
23472;SDS011;11909;52.516;13.564;2023-04-15T04:12:12;31.42;;;22.00;;
23472;SDS011;11909;52.516;13.564;2023-04-15T04:14:39;31.75;;;22.65;;
23472;SDS011;11909;52.516;13.564;2023-04-15T04:17:08;32.92;;;22.23;;
23472;SDS011;11909;52.516;13.564;2023-04-15T04:19:36;32.42;;;21.60;;
23472;SDS011;11909;52.516;13.564;2023-04-15T04:22:04;33.55;;;21.88;;
23472;SDS011;11909;52.516;13.564;2023-04-15T04:24:32;25.92;;;19.35;;
23472;SDS011;11909;52.516;13.564;2023-04-15T04:27:00;29.98;;;20.95;;
23472;SDS011;11909;52.516;13.564;2023-04-15T04:29:28;32.20;;;20.30;;
23472;SDS011;11909;52.516;13.564;2023-04-15T04:31:55;30.77;;;21.88;;
23472;SDS011;11909;52.516;13.564;2023-04-15T04:34:24;28.63;;;19.75;;
23472;SDS011;11909;52.516;13.564;2023-04-15T04:36:52;32.20;;;21.15;;
23472;SDS011;11909;52.516;13.564;2023-04-15T04:39:20;33.22;;;21.23;;
23472;SDS011;11909;52.516;13.564;2023-04-15T04:41:48;27.92;;;20.23;;
23472;SDS011;11909;52.516;13.564;2023-04-15T04:44:17;28.05;;;21.17;;
23472;SDS011;11909;52.516;13.564;2023-04-15T04:46:45;28.70;;;20.15;;
23472;SDS011;11909;52.516;13.564;2023-04-15T04:49:12;29.23;;;19.48;;
23472;SDS011;11909;52.516;13.564;2023-04-15T04:51:41;29.10;;;20.38;;
23472;SDS011;11909;52.516;13.564;2023-04-15T04:54:09;27.95;;;19.02;;
23472;SDS011;11909;52.516;13.564;2023-04-15T04:56:37;33.08;;;20.52;;
23472;SDS011;11909;52.516;13.564;2023-04-15T04:59:05;29.83;;;19.98;;
23472;SDS011;11909;52.516;13.564;2023-04-15T05:01:33;29.90;;;19.60;;
23472;SDS011;11909;52.516;13.564;2023-04-15T05:04:01;30.25;;;19.85;;
23472;SDS011;11909;52.516;13.564;2023-04-15T05:06:30;26.77;;;18.85;;
23472;SDS011;11909;52.516;13.564;2023-04-15T05:08:59;28.35;;;19.85;;
23472;SDS011;11909;52.516;13.564;2023-04-15T05:11:28;27.13;;;18.92;;
23472;SDS011;11909;52.516;13.564;2023-04-15T05:13:56;29.13;;;19.23;;
23472;SDS011;11909;52.516;13.564;2023-04-15T05:16:24;26.80;;;19.67;;
23472;SDS011;11909;52.516;13.564;2023-04-15T05:18:52;24.40;;;18.40;;
23472;SDS011;11909;52.516;13.564;2023-04-15T05:21:20;26.45;;;19.10;;
23472;SDS011;11909;52.516;13.564;2023-04-15T05:23:48;27.95;;;18.80;;
23472;SDS011;11909;52.516;13.564;2023-04-15T05:26:17;25.23;;;17.67;;
23472;SDS011;11909;52.516;13.564;2023-04-15T05:28:44;25.67;;;18.63;;
23472;SDS011;11909;52.516;13.564;2023-04-15T05:31:13;24.30;;;18.05;;
23472;SDS011;11909;52.516;13.564;2023-04-15T05:33:40;26.33;;;16.92;;
23472;SDS011;11909;52.516;13.564;2023-04-15T05:36:08;22.30;;;16.88;;
23472;SDS011;11909;52.516;13.564;2023-04-15T05:38:36;23.90;;;16.65;;
23472;SDS011;11909;52.516;13.564;2023-04-15T05:41:04;21.65;;;15.73;;
23472;SDS011;11909;52.516;13.564;2023-04-15T05:43:33;22.88;;;17.30;;
23472;SDS011;11909;52.516;13.564;2023-04-15T05:46:01;23.17;;;17.55;;
23472;SDS011;11909;52.516;13.564;2023-04-15T05:48:29;25.45;;;15.82;;
23472;SDS011;11909;52.516;13.564;2023-04-15T05:50:57;21.52;;;16.10;;
23472;SDS011;11909;52.516;13.564;2023-04-15T05:53:24;20.60;;;16.13;;
23472;SDS011;11909;52.516;13.564;2023-04-15T05:55:52;27.65;;;18.27;;
23472;SDS011;11909;52.516;13.564;2023-04-15T05:58:20;18.58;;;14.77;;
23472;SDS011;11909;52.516;13.564;2023-04-15T06:00:49;20.02;;;15.98;;
23472;SDS011;11909;52.516;13.564;2023-04-15T06:03:17;21.70;;;15.88;;
23472;SDS011;11909;52.516;13.564;2023-04-15T06:05:44;18.55;;;15.48;;
23472;SDS011;11909;52.516;13.564;2023-04-15T06:08:12;24.98;;;16.15;;
23472;SDS011;11909;52.516;13.564;2023-04-15T06:10:40;26.88;;;16.58;;
23472;SDS011;11909;52.516;13.564;2023-04-15T06:13:07;21.42;;;15.40;;
23472;SDS011;11909;52.516;13.564;2023-04-15T06:15:35;19.23;;;13.85;;
23472;SDS011;11909;52.516;13.564;2023-04-15T06:18:04;18.90;;;14.82;;
23472;SDS011;11909;52.516;13.564;2023-04-15T06:20:32;18.42;;;14.68;;
23472;SDS011;11909;52.516;13.564;2023-04-15T06:22:59;18.63;;;14.63;;
23472;SDS011;11909;52.516;13.564;2023-04-15T06:25:27;20.02;;;14.20;;
23472;SDS011;11909;52.516;13.564;2023-04-15T06:27:55;24.48;;;16.15;;
23472;SDS011;11909;52.516;13.564;2023-04-15T06:30:22;17.02;;;13.70;;
23472;SDS011;11909;52.516;13.564;2023-04-15T06:32:50;23.02;;;16.50;;
23472;SDS011;11909;52.516;13.564;2023-04-15T06:35:20;18.80;;;14.55;;
23472;SDS011;11909;52.516;13.564;2023-04-15T06:37:48;21.40;;;13.60;;
23472;SDS011;11909;52.516;13.564;2023-04-15T06:40:16;18.08;;;12.93;;
23472;SDS011;11909;52.516;13.564;2023-04-15T06:42:44;17.60;;;12.98;;
23472;SDS011;11909;52.516;13.564;2023-04-15T06:45:12;16.85;;;13.13;;
23472;SDS011;11909;52.516;13.564;2023-04-15T06:47:39;19.75;;;13.88;;
23472;SDS011;11909;52.516;13.564;2023-04-15T06:50:08;16.45;;;12.85;;
23472;SDS011;11909;52.516;13.564;2023-04-15T06:52:38;15.82;;;12.18;;
23472;SDS011;11909;52.516;13.564;2023-04-15T06:55:06;14.90;;;12.75;;
23472;SDS011;11909;52.516;13.564;2023-04-15T06:57:35;16.02;;;13.10;;
23472;SDS011;11909;52.516;13.564;2023-04-15T07:00:03;16.23;;;13.40;;
23472;SDS011;11909;52.516;13.564;2023-04-15T07:02:31;17.20;;;13.75;;
23472;SDS011;11909;52.516;13.564;2023-04-15T07:04:58;18.75;;;13.45;;
23472;SDS011;11909;52.516;13.564;2023-04-15T07:07:26;14.20;;;11.25;;
23472;SDS011;11909;52.516;13.564;2023-04-15T07:09:55;16.33;;;12.07;;
23472;SDS011;11909;52.516;13.564;2023-04-15T07:12:24;20.27;;;15.77;;
23472;SDS011;11909;52.516;13.564;2023-04-15T07:14:53;19.58;;;14.80;;
23472;SDS011;11909;52.516;13.564;2023-04-15T07:17:21;15.65;;;12.60;;
23472;SDS011;11909;52.516;13.564;2023-04-15T07:19:48;14.55;;;12.30;;
23472;SDS011;11909;52.516;13.564;2023-04-15T07:22:16;16.40;;;12.32;;
23472;SDS011;11909;52.516;13.564;2023-04-15T07:24:44;17.13;;;12.65;;
23472;SDS011;11909;52.516;13.564;2023-04-15T07:27:13;16.13;;;12.75;;
23472;SDS011;11909;52.516;13.564;2023-04-15T07:29:41;15.25;;;13.23;;
23472;SDS011;11909;52.516;13.564;2023-04-15T07:32:09;17.42;;;13.20;;
23472;SDS011;11909;52.516;13.564;2023-04-15T07:34:36;17.02;;;13.52;;
23472;SDS011;11909;52.516;13.564;2023-04-15T07:37:04;15.55;;;13.02;;
23472;SDS011;11909;52.516;13.564;2023-04-15T07:39:32;14.77;;;12.88;;
23472;SDS011;11909;52.516;13.564;2023-04-15T07:42:00;15.27;;;12.48;;
23472;SDS011;11909;52.516;13.564;2023-04-15T07:44:29;17.80;;;14.00;;
23472;SDS011;11909;52.516;13.564;2023-04-15T07:46:57;19.25;;;12.95;;
23472;SDS011;11909;52.516;13.564;2023-04-15T07:49:25;17.48;;;12.73;;
23472;SDS011;11909;52.516;13.564;2023-04-15T07:51:52;16.02;;;12.73;;
23472;SDS011;11909;52.516;13.564;2023-04-15T07:54:21;15.65;;;12.73;;
23472;SDS011;11909;52.516;13.564;2023-04-15T07:56:49;22.20;;;15.65;;
23472;SDS011;11909;52.516;13.564;2023-04-15T07:59:16;26.45;;;18.50;;
23472;SDS011;11909;52.516;13.564;2023-04-15T08:01:46;17.85;;;14.27;;
23472;SDS011;11909;52.516;13.564;2023-04-15T08:04:14;19.83;;;14.25;;
23472;SDS011;11909;52.516;13.564;2023-04-15T08:06:42;21.20;;;14.55;;
23472;SDS011;11909;52.516;13.564;2023-04-15T08:09:10;18.70;;;13.70;;
23472;SDS011;11909;52.516;13.564;2023-04-15T08:11:37;16.85;;;13.57;;
23472;SDS011;11909;52.516;13.564;2023-04-15T08:14:05;19.20;;;14.00;;
23472;SDS011;11909;52.516;13.564;2023-04-15T08:16:33;19.30;;;14.15;;
23472;SDS011;11909;52.516;13.564;2023-04-15T08:19:03;18.27;;;14.02;;
23472;SDS011;11909;52.516;13.564;2023-04-15T08:21:31;17.65;;;13.65;;
23472;SDS011;11909;52.516;13.564;2023-04-15T08:23:59;21.23;;;13.98;;
23472;SDS011;11909;52.516;13.564;2023-04-15T08:26:26;19.05;;;14.75;;
23472;SDS011;11909;52.516;13.564;2023-04-15T08:28:54;19.55;;;14.70;;
23472;SDS011;11909;52.516;13.564;2023-04-15T08:31:22;17.58;;;14.27;;
23472;SDS011;11909;52.516;13.564;2023-04-15T08:33:53;22.13;;;14.32;;
23472;SDS011;11909;52.516;13.564;2023-04-15T08:36:23;18.33;;;15.32;;
23472;SDS011;11909;52.516;13.564;2023-04-15T08:38:52;19.75;;;15.95;;
23472;SDS011;11909;52.516;13.564;2023-04-15T08:41:20;25.30;;;19.35;;
23472;SDS011;11909;52.516;13.564;2023-04-15T08:43:52;21.43;;;15.80;;
23472;SDS011;11909;52.516;13.564;2023-04-15T08:46:23;19.63;;;15.48;;
23472;SDS011;11909;52.516;13.564;2023-04-15T08:48:51;21.77;;;14.63;;
23472;SDS011;11909;52.516;13.564;2023-04-15T08:51:25;18.55;;;15.55;;
23472;SDS011;11909;52.516;13.564;2023-04-15T08:53:53;17.85;;;15.38;;
23472;SDS011;11909;52.516;13.564;2023-04-15T08:56:22;18.45;;;14.48;;
23472;SDS011;11909;52.516;13.564;2023-04-15T09:01:19;17.90;;;14.48;;
23472;SDS011;11909;52.516;13.564;2023-04-15T09:03:47;16.33;;;13.63;;
23472;SDS011;11909;52.516;13.564;2023-04-15T09:06:16;21.13;;;15.32;;
23472;SDS011;11909;52.516;13.564;2023-04-15T09:08:45;22.08;;;16.85;;
23472;SDS011;11909;52.516;13.564;2023-04-15T09:11:13;19.48;;;15.45;;
23472;SDS011;11909;52.516;13.564;2023-04-15T09:13:45;18.60;;;14.18;;
23472;SDS011;11909;52.516;13.564;2023-04-15T09:16:13;17.70;;;14.13;;
23472;SDS011;11909;52.516;13.564;2023-04-15T09:18:41;19.98;;;14.68;;
23472;SDS011;11909;52.516;13.564;2023-04-15T09:21:10;18.25;;;14.35;;
23472;SDS011;11909;52.516;13.564;2023-04-15T09:23:40;16.23;;;14.40;;
23472;SDS011;11909;52.516;13.564;2023-04-15T09:26:09;17.63;;;13.65;;
23472;SDS011;11909;52.516;13.564;2023-04-15T09:28:40;17.60;;;14.57;;
23472;SDS011;11909;52.516;13.564;2023-04-15T09:31:09;17.13;;;13.88;;
23472;SDS011;11909;52.516;13.564;2023-04-15T09:33:52;16.50;;;13.75;;
23472;SDS011;11909;52.516;13.564;2023-04-15T09:36:22;16.20;;;14.50;;
23472;SDS011;11909;52.516;13.564;2023-04-15T09:38:53;15.48;;;13.60;;
23472;SDS011;11909;52.516;13.564;2023-04-15T09:41:23;16.88;;;13.15;;
23472;SDS011;11909;52.516;13.564;2023-04-15T09:43:51;17.00;;;13.35;;
23472;SDS011;11909;52.516;13.564;2023-04-15T09:46:19;16.58;;;14.13;;
23472;SDS011;11909;52.516;13.564;2023-04-15T09:48:47;15.45;;;13.80;;
23472;SDS011;11909;52.516;13.564;2023-04-15T09:51:34;19.48;;;13.80;;
23472;SDS011;11909;52.516;13.564;2023-04-15T09:54:03;17.40;;;13.63;;
23472;SDS011;11909;52.516;13.564;2023-04-15T09:56:33;15.20;;;13.60;;
23472;SDS011;11909;52.516;13.564;2023-04-15T09:59:03;15.02;;;13.40;;
23472;SDS011;11909;52.516;13.564;2023-04-15T10:01:31;16.05;;;13.50;;
23472;SDS011;11909;52.516;13.564;2023-04-15T10:04:00;53.20;;;33.53;;
23472;SDS011;11909;52.516;13.564;2023-04-15T10:06:30;75.78;;;46.47;;
23472;SDS011;11909;52.516;13.564;2023-04-15T10:08:58;20.77;;;15.30;;
23472;SDS011;11909;52.516;13.564;2023-04-15T10:11:28;17.38;;;14.80;;
23472;SDS011;11909;52.516;13.564;2023-04-15T10:13:58;16.63;;;14.33;;
23472;SDS011;11909;52.516;13.564;2023-04-15T10:16:27;16.15;;;12.88;;
23472;SDS011;11909;52.516;13.564;2023-04-15T10:21:27;15.98;;;13.15;;
23472;SDS011;11909;52.516;13.564;2023-04-15T10:23:57;16.67;;;13.97;;
23472;SDS011;11909;52.516;13.564;2023-04-15T10:26:25;16.25;;;13.90;;
23472;SDS011;11909;52.516;13.564;2023-04-15T10:28:54;15.98;;;13.98;;
23472;SDS011;11909;52.516;13.564;2023-04-15T10:31:26;16.42;;;13.50;;
23472;SDS011;11909;52.516;13.564;2023-04-15T10:33:54;15.27;;;13.50;;
23472;SDS011;11909;52.516;13.564;2023-04-15T10:36:24;15.20;;;13.57;;
23472;SDS011;11909;52.516;13.564;2023-04-15T10:38:52;14.02;;;12.55;;
23472;SDS011;11909;52.516;13.564;2023-04-15T10:41:20;16.05;;;14.02;;
23472;SDS011;11909;52.516;13.564;2023-04-15T10:43:50;17.77;;;13.63;;
23472;SDS011;11909;52.516;13.564;2023-04-15T10:46:22;16.17;;;13.55;;
23472;SDS011;11909;52.516;13.564;2023-04-15T10:49:05;17.48;;;14.52;;
23472;SDS011;11909;52.516;13.564;2023-04-15T10:51:34;14.75;;;12.57;;
23472;SDS011;11909;52.516;13.564;2023-04-15T10:54:07;14.98;;;11.90;;
23472;SDS011;11909;52.516;13.564;2023-04-15T10:56:36;14.02;;;12.10;;
23472;SDS011;11909;52.516;13.564;2023-04-15T10:59:04;14.48;;;12.55;;
23472;SDS011;11909;52.516;13.564;2023-04-15T11:10:03;31.92;;;24.58;;
23472;SDS011;11909;52.516;13.564;2023-04-15T11:13:26;17.52;;;15.00;;
23472;SDS011;11909;52.516;13.564;2023-04-15T11:16:00;15.18;;;12.73;;
23472;SDS011;11909;52.516;13.564;2023-04-15T11:18:29;13.38;;;11.55;;
23472;SDS011;11909;52.516;13.564;2023-04-15T11:21:01;13.18;;;11.75;;
23472;SDS011;11909;52.516;13.564;2023-04-15T11:23:31;14.63;;;12.13;;
23472;SDS011;11909;52.516;13.564;2023-04-15T11:26:01;12.60;;;11.30;;
23472;SDS011;11909;52.516;13.564;2023-04-15T11:28:34;11.98;;;10.70;;
23472;SDS011;11909;52.516;13.564;2023-04-15T11:31:05;13.27;;;11.85;;
23472;SDS011;11909;52.516;13.564;2023-04-15T11:33:34;18.17;;;11.85;;
23472;SDS011;11909;52.516;13.564;2023-04-15T11:36:03;13.40;;;12.05;;
23472;SDS011;11909;52.516;13.564;2023-04-15T11:38:31;11.93;;;10.55;;
23472;SDS011;11909;52.516;13.564;2023-04-15T11:41:00;13.13;;;10.53;;
23472;SDS011;11909;52.516;13.564;2023-04-15T11:43:28;13.35;;;11.43;;
23472;SDS011;11909;52.516;13.564;2023-04-15T11:46:00;13.30;;;11.80;;
23472;SDS011;11909;52.516;13.564;2023-04-15T11:48:31;15.48;;;11.45;;
23472;SDS011;11909;52.516;13.564;2023-04-15T11:51:00;14.50;;;11.23;;
23472;SDS011;11909;52.516;13.564;2023-04-15T11:53:37;11.57;;;10.35;;
23472;SDS011;11909;52.516;13.564;2023-04-15T11:56:07;16.33;;;11.02;;
23472;SDS011;11909;52.516;13.564;2023-04-15T11:58:37;12.10;;;10.82;;
23472;SDS011;11909;52.516;13.564;2023-04-15T12:01:05;12.40;;;11.00;;
23472;SDS011;11909;52.516;13.564;2023-04-15T12:03:36;161.63;;;105.45;;
23472;SDS011;11909;52.516;13.564;2023-04-15T12:08:58;20.67;;;15.98;;
23472;SDS011;11909;52.516;13.564;2023-04-15T12:11:29;13.18;;;11.73;;
23472;SDS011;11909;52.516;13.564;2023-04-15T12:14:03;12.75;;;11.40;;
23472;SDS011;11909;52.516;13.564;2023-04-15T12:16:33;11.95;;;10.65;;
23472;SDS011;11909;52.516;13.564;2023-04-15T12:19:15;14.10;;;10.30;;
23472;SDS011;11909;52.516;13.564;2023-04-15T12:21:45;12.98;;;10.25;;
23472;SDS011;11909;52.516;13.564;2023-04-15T12:24:18;13.10;;;11.70;;
23472;SDS011;11909;52.516;13.564;2023-04-15T12:26:48;12.00;;;10.80;;
23472;SDS011;11909;52.516;13.564;2023-04-15T12:29:18;11.80;;;10.53;;
23472;SDS011;11909;52.516;13.564;2023-04-15T12:31:47;12.02;;;10.57;;
23472;SDS011;11909;52.516;13.564;2023-04-15T12:34:17;13.45;;;11.02;;
23472;SDS011;11909;52.516;13.564;2023-04-15T12:36:46;10.68;;;9.60;;
23472;SDS011;11909;52.516;13.564;2023-04-15T12:39:13;11.63;;;10.13;;
23472;SDS011;11909;52.516;13.564;2023-04-15T12:41:42;12.02;;;9.73;;
23472;SDS011;11909;52.516;13.564;2023-04-15T12:44:10;10.48;;;9.38;;
23472;SDS011;11909;52.516;13.564;2023-04-15T12:46:38;11.85;;;9.23;;
23472;SDS011;11909;52.516;13.564;2023-04-15T12:49:06;12.80;;;9.90;;
23472;SDS011;11909;52.516;13.564;2023-04-15T12:51:34;15.40;;;12.63;;
23472;SDS011;11909;52.516;13.564;2023-04-15T12:54:02;14.45;;;9.55;;
23472;SDS011;11909;52.516;13.564;2023-04-15T12:56:32;10.75;;;8.82;;
23472;SDS011;11909;52.516;13.564;2023-04-15T12:59:00;9.95;;;8.95;;
23472;SDS011;11909;52.516;13.564;2023-04-15T13:01:27;9.07;;;8.15;;
23472;SDS011;11909;52.516;13.564;2023-04-15T13:03:55;9.02;;;7.60;;
23472;SDS011;11909;52.516;13.564;2023-04-15T13:06:23;9.30;;;8.38;;
23472;SDS011;11909;52.516;13.564;2023-04-15T13:08:51;9.70;;;8.43;;
23472;SDS011;11909;52.516;13.564;2023-04-15T13:11:24;9.07;;;7.43;;
23472;SDS011;11909;52.516;13.564;2023-04-15T13:13:53;8.38;;;7.47;;
23472;SDS011;11909;52.516;13.564;2023-04-15T13:16:22;8.17;;;7.37;;
23472;SDS011;11909;52.516;13.564;2023-04-15T13:18:50;7.60;;;6.75;;
23472;SDS011;11909;52.516;13.564;2023-04-15T13:21:17;7.82;;;6.60;;
23472;SDS011;11909;52.516;13.564;2023-04-15T13:23:46;7.22;;;6.53;;
23472;SDS011;11909;52.516;13.564;2023-04-15T13:26:15;6.75;;;6.05;;
23472;SDS011;11909;52.516;13.564;2023-04-15T13:28:42;7.78;;;6.28;;
23472;SDS011;11909;52.516;13.564;2023-04-15T13:31:11;8.35;;;6.93;;
23472;SDS011;11909;52.516;13.564;2023-04-15T13:33:39;6.70;;;6.10;;
23472;SDS011;11909;52.516;13.564;2023-04-15T13:36:07;7.00;;;6.35;;
23472;SDS011;11909;52.516;13.564;2023-04-15T13:38:35;7.07;;;6.10;;
23472;SDS011;11909;52.516;13.564;2023-04-15T13:41:03;6.53;;;5.85;;
23472;SDS011;11909;52.516;13.564;2023-04-15T13:43:30;8.35;;;6.28;;
23472;SDS011;11909;52.516;13.564;2023-04-15T13:45:59;5.65;;;5.15;;
23472;SDS011;11909;52.516;13.564;2023-04-15T13:48:28;6.63;;;6.03;;
23472;SDS011;11909;52.516;13.564;2023-04-15T13:50:56;6.57;;;5.97;;
23472;SDS011;11909;52.516;13.564;2023-04-15T13:53:24;7.25;;;6.28;;
23472;SDS011;11909;52.516;13.564;2023-04-15T13:56:04;6.72;;;6.10;;
23472;SDS011;11909;52.516;13.564;2023-04-15T13:58:32;7.30;;;6.60;;
23472;SDS011;11909;52.516;13.564;2023-04-15T14:00:59;8.48;;;6.78;;
23472;SDS011;11909;52.516;13.564;2023-04-15T14:03:32;8.45;;;6.35;;
23472;SDS011;11909;52.516;13.564;2023-04-15T14:06:01;7.57;;;6.88;;
23472;SDS011;11909;52.516;13.564;2023-04-15T14:08:29;7.10;;;6.40;;
23472;SDS011;11909;52.516;13.564;2023-04-15T14:10:57;7.10;;;6.38;;
23472;SDS011;11909;52.516;13.564;2023-04-15T14:13:24;7.47;;;6.78;;
23472;SDS011;11909;52.516;13.564;2023-04-15T14:15:52;10.80;;;6.95;;
23472;SDS011;11909;52.516;13.564;2023-04-15T14:18:20;11.27;;;9.25;;
23472;SDS011;11909;52.516;13.564;2023-04-15T14:20:49;10.18;;;8.70;;
23472;SDS011;11909;52.516;13.564;2023-04-15T14:23:16;7.28;;;6.57;;
23472;SDS011;11909;52.516;13.564;2023-04-15T14:25:44;7.38;;;6.68;;
23472;SDS011;11909;52.516;13.564;2023-04-15T14:28:13;6.85;;;6.18;;
23472;SDS011;11909;52.516;13.564;2023-04-15T14:30:41;6.43;;;5.82;;
23472;SDS011;11909;52.516;13.564;2023-04-15T14:33:09;7.60;;;6.60;;
23472;SDS011;11909;52.516;13.564;2023-04-15T14:35:37;8.00;;;7.05;;
23472;SDS011;11909;52.516;13.564;2023-04-15T14:38:06;8.45;;;7.18;;